createdAt,value
2022-08-18T00:01:25.125Z,21.72
2022-08-18T00:03:59.182Z,21.65
2022-08-18T00:06:31.571Z,21.60
2022-08-18T00:09:04.089Z,21.56
2022-08-18T00:11:40.911Z,21.52
2022-08-18T00:14:21.730Z,21.47
2022-08-18T00:16:54.426Z,21.44
2022-08-18T00:19:46.593Z,21.41
2022-08-18T00:22:17.388Z,21.38
2022-08-18T00:24:49.990Z,21.35
2022-08-18T00:27:31.474Z,21.33
2022-08-18T00:30:07.380Z,21.30
2022-08-18T00:32:43.290Z,21.29
2022-08-18T00:35:28.995Z,21.26
2022-08-18T00:38:02.642Z,21.24
2022-08-18T00:40:49.085Z,21.20
2022-08-18T00:43:39.977Z,21.17
2022-08-18T00:46:23.390Z,21.11
2022-08-18T00:48:52.871Z,21.05
2022-08-18T00:51:33.478Z,20.99
2022-08-18T00:54:16.270Z,20.95
2022-08-18T00:56:49.712Z,20.91
2022-08-18T00:59:32.046Z,20.87
2022-08-18T01:02:05.734Z,20.84
2022-08-18T01:04:45.162Z,20.81
2022-08-18T01:07:25.073Z,20.76
2022-08-18T01:09:53.378Z,20.73
2022-08-18T01:12:45.010Z,20.69
2022-08-18T01:15:13.861Z,20.64
2022-08-18T01:18:22.251Z,20.59
2022-08-18T01:21:38.346Z,20.52
2022-08-18T01:24:13.074Z,20.46
2022-08-18T01:26:46.455Z,20.41
2022-08-18T01:29:19.230Z,20.37
2022-08-18T01:31:56.912Z,20.32
2022-08-18T01:34:28.491Z,20.26
2022-08-18T01:36:57.628Z,20.23
2022-08-18T01:41:11.076Z,20.20
2022-08-18T01:42:17.428Z,20.19
2022-08-18T01:44:48.478Z,20.16
2022-08-18T01:47:18.733Z,20.15
2022-08-18T01:49:47.026Z,20.15
2022-08-18T01:52:21.111Z,20.16
2022-08-18T01:54:51.006Z,20.14
2022-08-18T01:57:22.364Z,20.11
2022-08-18T01:59:50.663Z,20.07
2022-08-18T02:02:25.692Z,20.04
2022-08-18T02:05:02.303Z,20.03
2022-08-18T02:07:36.277Z,20.01
2022-08-18T02:10:12.258Z,19.99
2022-08-18T02:12:42.002Z,19.95
2022-08-18T02:15:12.152Z,19.93
2022-08-18T02:17:45.677Z,19.91
2022-08-18T02:20:19.024Z,19.90
2022-08-18T02:22:48.829Z,19.89
2022-08-18T02:25:18.665Z,19.87
2022-08-18T02:27:47.072Z,19.85
2022-08-18T02:30:18.843Z,19.83
2022-08-18T02:32:47.543Z,19.81
2022-08-18T02:35:16.687Z,19.78
2022-08-18T02:37:48.333Z,19.76
2022-08-18T02:40:17.966Z,19.73
2022-08-18T02:42:47.235Z,19.69
2022-08-18T02:45:16.062Z,19.65
2022-08-18T02:47:45.270Z,19.60
2022-08-18T02:50:13.991Z,19.56
2022-08-18T02:52:42.486Z,19.52
2022-08-18T02:55:11.785Z,19.49
2022-08-18T02:57:46.269Z,19.46
2022-08-18T03:00:19.888Z,19.44
2022-08-18T03:02:53.490Z,19.43
2022-08-18T03:05:21.849Z,19.42
2022-08-18T03:07:51.181Z,19.40
2022-08-18T03:10:33.095Z,19.39
2022-08-18T03:13:03.024Z,19.36
2022-08-18T03:15:31.717Z,19.33
2022-08-18T03:18:00.854Z,19.30
2022-08-18T03:20:30.505Z,19.28
2022-08-18T03:23:09.614Z,19.27
2022-08-18T03:25:48.417Z,19.26
2022-08-18T03:28:17.539Z,19.24
2022-08-18T03:30:46.043Z,19.22
2022-08-18T03:33:14.322Z,19.22
2022-08-18T03:35:42.603Z,19.21
2022-08-18T03:38:11.810Z,19.20
2022-08-18T03:40:40.210Z,19.19
2022-08-18T03:43:50.101Z,19.19
2022-08-18T03:46:05.979Z,19.19
2022-08-18T03:48:34.238Z,19.17
2022-08-18T03:51:08.383Z,19.16
2022-08-18T03:53:38.219Z,19.15
2022-08-18T03:56:17.593Z,19.15
2022-08-18T03:58:55.831Z,19.14
2022-08-18T04:01:29.442Z,19.13
2022-08-18T04:04:02.366Z,19.13
2022-08-18T04:06:41.047Z,19.14
2022-08-18T04:09:15.463Z,19.15
2022-08-18T04:11:45.129Z,19.16
2022-08-18T04:14:17.874Z,19.19
2022-08-18T04:16:49.030Z,19.21
2022-08-18T04:19:23.080Z,19.25
2022-08-18T04:21:58.327Z,19.30
2022-08-18T04:24:31.921Z,19.33
2022-08-18T04:27:04.936Z,19.38
2022-08-18T04:29:33.318Z,19.44
2022-08-18T04:32:04.906Z,19.48
2022-08-18T04:34:34.595Z,19.53
2022-08-18T04:37:03.144Z,19.59
2022-08-18T04:39:32.002Z,19.64
2022-08-18T04:42:01.718Z,19.68
2022-08-18T04:44:29.995Z,19.74
2022-08-18T04:46:58.327Z,19.80
2022-08-18T04:49:26.775Z,19.86
2022-08-18T04:52:37.936Z,19.93
2022-08-18T04:55:03.060Z,20.02
2022-08-18T04:57:35.151Z,20.09
2022-08-18T05:00:06.692Z,20.16
2022-08-18T05:02:35.097Z,20.23
2022-08-18T05:05:05.378Z,20.31
2022-08-18T05:07:33.783Z,20.39
2022-08-18T05:10:02.773Z,20.47
2022-08-18T05:12:31.108Z,20.63
2022-08-18T05:14:59.462Z,20.78
2022-08-18T05:17:30.471Z,20.94
2022-08-18T05:20:01.069Z,21.08
2022-08-18T05:22:37.014Z,21.15
2022-08-18T05:27:54.743Z,21.33
2022-08-18T05:30:23.002Z,21.41
2022-08-18T05:32:51.511Z,21.50
2022-08-18T05:35:29.057Z,21.60
2022-08-18T05:38:22.562Z,21.71
2022-08-18T05:41:14.135Z,21.84
2022-08-18T05:43:51.787Z,21.97
2022-08-18T05:46:35.602Z,22.10
2022-08-18T05:49:05.143Z,22.26
2022-08-18T05:51:47.974Z,22.35
2022-08-18T05:54:38.465Z,22.45
2022-08-18T05:57:24.324Z,22.58
2022-08-18T05:59:53.945Z,22.71
2022-08-18T06:02:52.517Z,22.81
2022-08-18T06:05:29.040Z,22.93
2022-08-18T06:08:02.335Z,23.03
2022-08-18T06:10:31.330Z,23.14
2022-08-18T06:13:02.510Z,23.23
2022-08-18T06:16:27.170Z,23.32
2022-08-18T06:19:27.880Z,23.43
2022-08-18T06:22:36.356Z,23.54
2022-08-18T06:25:25.088Z,23.64
2022-08-18T06:28:07.823Z,23.72
2022-08-18T06:30:47.391Z,23.84
2022-08-18T06:34:07.097Z,23.92
2022-08-18T06:37:02.468Z,24.06
2022-08-18T06:39:52.455Z,24.30
2022-08-18T06:42:30.390Z,24.53
2022-08-18T06:45:08.563Z,24.71
2022-08-18T06:47:54.842Z,24.90
2022-08-18T06:50:38.823Z,24.97
2022-08-18T06:53:25.921Z,25.00
2022-08-18T06:55:56.635Z,25.05
2022-08-18T06:58:30.789Z,25.10
2022-08-18T07:01:06.021Z,25.15
2022-08-18T07:03:44.545Z,25.23
2022-08-18T07:06:18.795Z,25.28
2022-08-18T07:08:49.911Z,25.37
2022-08-18T07:11:36.617Z,25.44
2022-08-18T07:14:27.068Z,25.54
2022-08-18T07:17:53.027Z,25.66
2022-08-18T07:20:25.884Z,26.02
2022-08-18T07:23:01.801Z,26.31
2022-08-18T07:25:43.180Z,26.55
2022-08-18T07:28:39.855Z,26.75
2022-08-18T07:31:34.996Z,26.95
2022-08-18T07:34:08.526Z,27.10
2022-08-18T07:36:47.133Z,27.21
2022-08-18T07:39:33.024Z,27.31
2022-08-18T07:42:14.478Z,27.43
2022-08-18T07:45:24.146Z,27.54
2022-08-18T07:48:37.757Z,27.64
2022-08-18T07:51:27.001Z,27.75
2022-08-18T07:54:49.017Z,27.83
2022-08-18T07:57:42.399Z,27.87
2022-08-18T08:00:47.767Z,27.94
2022-08-18T08:03:47.653Z,28.05
2022-08-18T08:06:38.941Z,28.17
2022-08-18T08:09:35.135Z,28.30
2022-08-18T08:12:26.823Z,28.48
2022-08-18T08:15:26.964Z,28.65
2022-08-18T08:18:11.653Z,28.82
2022-08-18T08:20:54.411Z,28.96
2022-08-18T08:23:47.069Z,29.11
2022-08-18T08:26:32.906Z,29.29
2022-08-18T08:29:43.089Z,29.53
2022-08-18T08:35:49.578Z,29.97
2022-08-18T08:38:46.359Z,30.18
2022-08-18T08:42:29.152Z,30.34
2022-08-18T08:45:01.034Z,30.48
2022-08-18T08:47:40.076Z,30.60
2022-08-18T08:50:18.362Z,30.71
2022-08-18T08:52:57.327Z,30.78
2022-08-18T08:55:32.850Z,31.00
2022-08-18T08:58:31.421Z,31.32
2022-08-18T09:01:15.703Z,31.49
2022-08-18T09:03:53.015Z,31.46
2022-08-18T09:06:55.765Z,31.50
2022-08-18T09:10:14.375Z,31.69
2022-08-18T09:13:05.883Z,31.86
2022-08-18T09:15:52.226Z,31.94
2022-08-18T09:18:51.083Z,32.04
2022-08-18T09:21:57.455Z,32.14
2022-08-18T09:24:41.450Z,32.27
2022-08-18T09:28:07.300Z,32.42
2022-08-18T09:31:08.712Z,32.48
2022-08-18T09:33:40.749Z,32.51
2022-08-18T09:36:35.220Z,32.52
2022-08-18T09:39:25.000Z,32.64
2022-08-18T09:42:16.638Z,32.74
2022-08-18T09:44:47.440Z,32.86
2022-08-18T09:47:24.370Z,32.96
2022-08-18T09:52:45.488Z,33.25
2022-08-18T09:55:18.120Z,33.31
2022-08-18T09:57:48.038Z,33.28
2022-08-18T10:03:25.720Z,33.49
2022-08-18T10:06:34.959Z,33.62
2022-08-18T10:09:47.340Z,33.71
2022-08-18T10:12:27.321Z,33.93
2022-08-18T10:15:33.093Z,34.06
2022-08-18T10:18:23.656Z,34.27
2022-08-18T10:27:02.705Z,34.70
2022-08-18T10:29:41.489Z,34.78
2022-08-18T10:32:14.257Z,34.83
2022-08-18T10:34:57.543Z,34.88
2022-08-18T10:37:49.035Z,34.93
2022-08-18T10:40:26.639Z,35.05
2022-08-18T10:43:55.658Z,35.24
2022-08-18T10:46:34.952Z,35.54
2022-08-18T10:56:11.276Z,35.96
2022-08-18T10:59:49.192Z,36.10
2022-08-18T11:03:42.560Z,36.24
2022-08-18T11:06:18.176Z,36.38
2022-08-18T11:08:57.782Z,36.50
2022-08-18T11:11:42.235Z,36.57
2022-08-18T11:14:59.639Z,36.68
2022-08-18T11:18:00.236Z,36.88
2022-08-18T11:20:31.609Z,36.94
2022-08-18T11:23:03.500Z,37.05
2022-08-18T11:25:38.287Z,37.21
2022-08-18T11:28:34.627Z,37.32
2022-08-18T11:31:06.704Z,37.46
2022-08-18T11:33:41.932Z,37.59
2022-08-18T11:36:11.210Z,37.75
2022-08-18T11:38:39.711Z,37.82
2022-08-18T11:41:18.952Z,37.91
2022-08-18T11:43:58.224Z,38.07
2022-08-18T11:46:39.568Z,38.23
2022-08-18T11:49:36.602Z,38.27
2022-08-18T11:55:36.725Z,38.35
2022-08-18T11:58:12.539Z,38.39
2022-08-18T12:01:02.926Z,38.46
2022-08-18T12:03:49.072Z,38.50
2022-08-18T12:07:06.604Z,38.56
2022-08-18T12:10:19.396Z,38.60
2022-08-18T12:12:56.330Z,38.67
2022-08-18T12:15:44.071Z,38.71
2022-08-18T12:18:28.870Z,38.90
2022-08-18T12:20:59.468Z,38.94
2022-08-18T12:23:49.475Z,38.90
2022-08-18T12:26:38.503Z,38.78
2022-08-18T12:29:11.103Z,38.36
2022-08-18T12:31:42.328Z,37.82
2022-08-18T12:34:24.954Z,37.21
2022-08-18T12:37:01.106Z,37.22
2022-08-18T12:42:36.117Z,37.98
2022-08-18T12:45:08.986Z,38.26
2022-08-18T12:47:42.325Z,38.48
2022-08-18T12:50:13.563Z,38.51
2022-08-18T12:52:42.112Z,38.56
2022-08-18T12:55:22.112Z,38.85
2022-08-18T12:57:53.987Z,39.02
2022-08-18T13:03:17.492Z,39.15
2022-08-18T13:05:53.628Z,39.41
2022-08-18T13:08:30.367Z,39.44
2022-08-18T13:11:14.697Z,39.57
2022-08-18T13:13:45.092Z,39.65
2022-08-18T13:16:30.645Z,39.71
2022-08-18T13:19:17.309Z,39.85
2022-08-18T13:21:45.659Z,39.95
2022-08-18T13:24:58.473Z,39.81
2022-08-18T13:27:27.174Z,39.74
2022-08-18T13:35:52.019Z,39.93
2022-08-18T13:39:08.031Z,40.08
2022-08-18T13:41:39.002Z,40.23
2022-08-18T13:44:18.950Z,40.31
2022-08-18T13:46:52.287Z,40.37
2022-08-18T13:49:30.380Z,40.53
2022-08-18T13:52:00.886Z,40.69
2022-08-18T13:55:01.441Z,40.88
2022-08-18T13:57:53.758Z,41.05
2022-08-18T14:03:42.239Z,41.17
2022-08-18T14:06:22.015Z,41.15
2022-08-18T14:09:54.268Z,41.25
2022-08-18T14:18:40.599Z,41.62
2022-08-18T14:21:32.931Z,41.74
2022-08-18T14:24:25.055Z,41.77
2022-08-18T14:26:53.574Z,41.78
2022-08-18T14:29:45.614Z,41.85
2022-08-18T14:32:18.276Z,41.91
2022-08-18T14:35:33.017Z,42.00
2022-08-18T14:37:58.459Z,42.06
2022-08-18T14:40:32.501Z,42.13
2022-08-18T14:43:06.445Z,42.15
2022-08-18T14:45:35.849Z,42.23
2022-08-18T14:48:11.095Z,42.41
2022-08-18T14:50:49.255Z,42.46
2022-08-18T14:53:20.587Z,42.48
2022-08-18T14:55:56.447Z,42.58
2022-08-18T14:58:31.200Z,42.68
2022-08-18T15:01:11.255Z,42.72
2022-08-18T15:03:41.429Z,42.73
2022-08-18T15:06:22.715Z,42.78
2022-08-18T15:08:51.783Z,42.79
2022-08-18T15:11:53.150Z,42.73
2022-08-18T15:21:19.470Z,42.64
2022-08-18T15:24:26.151Z,42.59
2022-08-18T15:27:06.049Z,42.51
2022-08-18T15:29:34.867Z,42.47
2022-08-18T15:32:17.667Z,42.48
2022-08-18T15:34:51.029Z,42.49
2022-08-18T15:37:25.203Z,42.34
2022-08-18T15:40:35.826Z,42.23
2022-08-18T15:43:10.583Z,42.16
2022-08-18T15:45:58.602Z,42.12
2022-08-18T15:48:53.634Z,42.09
2022-08-18T15:51:22.554Z,41.94
2022-08-18T15:53:56.372Z,41.75
2022-08-18T15:56:43.201Z,41.47
2022-08-18T15:59:40.157Z,41.04
2022-08-18T16:02:11.934Z,40.63
2022-08-18T16:04:46.619Z,40.16
2022-08-18T16:07:17.933Z,39.79
2022-08-18T16:10:02.734Z,39.49
2022-08-18T16:12:31.217Z,39.24
2022-08-18T16:15:00.085Z,38.96
2022-08-18T16:17:31.991Z,38.81
2022-08-18T16:20:01.520Z,38.79
2022-08-18T16:22:29.988Z,38.83
2022-08-18T16:24:59.009Z,38.97
2022-08-18T16:27:33.021Z,39.07
2022-08-18T16:30:06.715Z,39.08
2022-08-18T16:32:45.366Z,39.02
2022-08-18T16:35:22.958Z,38.86
2022-08-18T16:37:51.779Z,38.61
2022-08-18T16:40:20.920Z,38.53
2022-08-18T16:43:01.725Z,38.49
2022-08-18T16:45:33.549Z,38.41
2022-08-18T16:48:02.769Z,38.07
2022-08-18T16:50:31.160Z,37.68
2022-08-18T16:52:59.499Z,37.25
2022-08-18T16:55:31.651Z,36.91
2022-08-18T16:58:18.709Z,36.55
2022-08-18T17:01:05.815Z,36.29
2022-08-18T17:03:52.701Z,36.22
2022-08-18T17:06:21.014Z,36.19
2022-08-18T17:08:49.419Z,35.82
2022-08-18T17:11:20.084Z,35.46
2022-08-18T17:13:51.518Z,35.17
2022-08-18T17:16:22.440Z,34.87
2022-08-18T17:18:51.660Z,34.45
2022-08-18T17:21:27.972Z,33.90
2022-08-18T17:23:59.059Z,33.47
2022-08-18T17:26:43.064Z,33.23
2022-08-18T17:29:26.678Z,32.95
2022-08-18T17:32:04.963Z,32.68
2022-08-18T17:34:45.363Z,32.55
2022-08-18T17:37:17.925Z,32.42
2022-08-18T17:39:57.650Z,32.26
2022-08-18T17:42:31.320Z,32.08
2022-08-18T17:45:21.740Z,31.90
2022-08-18T17:48:20.056Z,31.68
2022-08-18T17:51:33.635Z,31.45
2022-08-18T17:54:38.360Z,31.23
2022-08-18T17:57:20.499Z,31.01
2022-08-18T18:00:16.381Z,30.77
2022-08-18T18:02:47.009Z,30.59
2022-08-18T18:05:20.329Z,30.45
2022-08-18T18:07:50.378Z,30.31
2022-08-18T18:10:29.251Z,30.18
2022-08-18T18:13:16.339Z,30.07
2022-08-18T18:15:50.714Z,29.94
2022-08-18T18:18:24.551Z,29.84
2022-08-18T18:21:06.437Z,29.75
2022-08-18T18:23:41.523Z,29.66
2022-08-18T18:26:35.038Z,29.57
2022-08-18T18:29:37.738Z,29.45
2022-08-18T18:32:29.588Z,29.33
2022-08-18T18:35:19.941Z,29.22
2022-08-18T18:37:52.544Z,29.10
2022-08-18T18:40:34.823Z,28.98
2022-08-18T18:43:45.055Z,28.79
2022-08-18T18:46:25.134Z,28.53
2022-08-18T18:49:18.955Z,28.35
2022-08-18T18:52:23.585Z,28.20
2022-08-18T18:55:05.162Z,28.08
2022-08-18T18:58:10.372Z,27.97
2022-08-18T19:01:03.156Z,27.89
2022-08-18T19:04:02.659Z,27.80
2022-08-18T19:06:43.910Z,27.71
2022-08-18T19:09:18.992Z,27.62
2022-08-18T19:12:18.136Z,27.54
2022-08-18T19:15:00.069Z,27.45
2022-08-18T19:17:39.118Z,27.34
2022-08-18T19:20:39.565Z,27.24
2022-08-18T19:23:45.026Z,27.12
2022-08-18T19:26:27.038Z,27.00
2022-08-18T19:29:20.241Z,26.93
2022-08-18T19:32:04.759Z,26.89
2022-08-18T19:34:47.611Z,26.87
2022-08-18T19:38:20.870Z,26.85
2022-08-18T19:41:00.379Z,26.85
2022-08-18T19:43:55.270Z,26.86
2022-08-18T19:46:34.838Z,26.85
2022-08-18T19:50:06.043Z,26.83
2022-08-18T19:53:08.069Z,26.78
2022-08-18T19:56:33.111Z,26.77
2022-08-18T19:59:34.087Z,26.79
2022-08-18T20:02:40.865Z,26.78
2022-08-18T20:05:44.721Z,26.76
2022-08-18T20:08:28.786Z,26.74
2022-08-18T20:11:42.442Z,26.71
2022-08-18T20:14:18.973Z,26.68
2022-08-18T20:17:09.128Z,26.64
2022-08-18T20:20:13.191Z,26.57
2022-08-18T20:22:46.637Z,26.51
2022-08-18T20:25:16.469Z,26.49
2022-08-18T20:28:12.760Z,26.49
2022-08-18T20:31:06.124Z,26.50
2022-08-18T20:34:06.322Z,26.49
2022-08-18T20:36:36.918Z,26.46
2022-08-18T20:39:54.610Z,26.44
2022-08-18T20:42:22.845Z,26.41
2022-08-18T20:45:09.142Z,26.38
2022-08-18T20:47:58.314Z,26.36
2022-08-18T20:50:54.246Z,26.32
2022-08-18T20:54:02.831Z,26.20
2022-08-18T20:56:59.070Z,26.11
2022-08-18T20:59:39.137Z,26.04
2022-08-18T21:02:30.931Z,25.99
2022-08-18T21:05:00.791Z,25.95
2022-08-18T21:07:39.402Z,25.92
2022-08-18T21:10:29.798Z,25.89
2022-08-18T21:13:06.023Z,25.86
2022-08-18T21:15:38.140Z,25.93
2022-08-18T21:18:18.575Z,26.02
2022-08-18T21:20:49.708Z,26.10
2022-08-18T21:23:31.549Z,26.16
2022-08-18T21:26:16.257Z,26.17
2022-08-18T21:28:51.801Z,26.11
2022-08-18T21:31:44.338Z,26.08
2022-08-18T21:34:44.410Z,26.04
2022-08-18T21:37:18.077Z,26.01
2022-08-18T21:39:52.440Z,25.99
2022-08-18T21:42:40.890Z,25.96
2022-08-18T21:45:21.882Z,25.94
2022-08-18T21:48:04.638Z,25.92
2022-08-18T21:50:35.134Z,25.90
2022-08-18T21:53:22.311Z,25.89
2022-08-18T21:55:56.254Z,25.88
2022-08-18T21:58:34.486Z,25.87
2022-08-18T22:01:25.072Z,25.86
2022-08-18T22:04:04.126Z,25.84
2022-08-18T22:06:40.778Z,25.82
2022-08-18T22:09:30.859Z,25.82
2022-08-18T22:12:42.961Z,25.81
2022-08-18T22:15:31.573Z,25.78
2022-08-18T22:18:48.990Z,25.76
2022-08-18T22:22:26.451Z,25.72
2022-08-18T22:25:00.130Z,25.70
2022-08-18T22:27:29.582Z,25.69
2022-08-18T22:30:04.726Z,25.68
2022-08-18T22:32:37.570Z,25.67
2022-08-18T22:35:08.038Z,25.67
2022-08-18T22:37:48.688Z,25.65
2022-08-18T22:40:22.033Z,25.63
2022-08-18T22:42:50.554Z,25.61
2022-08-18T22:45:20.650Z,25.60
2022-08-18T22:47:49.448Z,25.59
2022-08-18T22:50:17.792Z,25.56
2022-08-18T22:52:49.567Z,25.54
2022-08-18T22:55:22.098Z,25.52
2022-08-18T22:57:55.734Z,25.49
2022-08-18T23:00:26.556Z,25.46
2022-08-18T23:02:57.404Z,25.48
2022-08-18T23:05:25.738Z,25.53
2022-08-18T23:07:54.626Z,25.55
2022-08-18T23:10:23.001Z,25.55
2022-08-18T23:12:51.535Z,25.48
2022-08-18T23:15:20.818Z,25.41
2022-08-18T23:17:49.101Z,25.37
2022-08-18T23:20:19.516Z,25.33
2022-08-18T23:22:48.648Z,25.30
2022-08-18T23:25:17.294Z,25.27
2022-08-18T23:27:45.603Z,25.24
2022-08-18T23:30:15.372Z,25.21
2022-08-18T23:32:43.717Z,25.17
2022-08-18T23:35:12.228Z,25.13
2022-08-18T23:37:41.612Z,25.09
2022-08-18T23:40:15.612Z,25.06
2022-08-18T23:42:44.131Z,25.03
2022-08-18T23:45:12.482Z,25.00
2022-08-18T23:47:41.426Z,24.99
2022-08-18T23:50:11.533Z,24.96
2022-08-18T23:52:40.799Z,24.94
2022-08-18T23:55:13.219Z,24.92
2022-08-18T23:57:41.488Z,24.90
